Аэропорт: Нариманово. Астрахань

ICAO: URWA

METAR:
2019/01/21 23:00
URWA 212300Z 14003MPS 0550 R09/2000U FG VV001 00/00 Q1015 R09/390045 NOSIG RMK QBB040 OBST OBSC QFE763/1018
METAR:
2018/12/01 06:12
TAF TAF URWA 010500Z 0106/0118 08011G17MPS CAVOK 
      TEMPO 0106/0110 10013G20MPS